Caribe Navigator — V2PW6 — position and weather

sailwx.info

Track history (hours):
 
Tides and Currents Weather Stations Pressure Air Temp Water Temp Dewpoint Dewpoint Depression Visibility Wind Speed Wind Dir Waves Ship Positions

Caribe Navigator

Last reported at 2015-May-07 02:22 UTC. Time now 2015-May-07 02:35 UTC.
Position N 26°05' W 080°07'.

Length 100 m; draft 5.3 m.

Type: Cargo ship. MMSI: 305289000.

Date/timePositionNaut miles runAvg speedWind from/ knotsBaromVisibWave heightAir tempDewpointWater temp
2015-May-07 02:22N 26°05' W 080°07'0 0.0
2015-May-07 01:07N 26°05' W 080°07'0 0.0
2015-May-07 00:22N 26°05' W 080°07'0 0.0
2015-May-06 23:34N 26°05' W 080°07'0 0.0
2015-May-06 22:33N 26°05' W 080°07'0 0.0
2015-May-06 21:24N 26°05' W 080°07'0 0.0
2015-May-06 20:24N 26°05' W 080°07'0 0.0
2015-May-06 19:24N 26°05' W 080°07'0 0.0
2015-May-06 18:27N 26°05' W 080°07'0 0.0
2015-May-06 17:27N 26°05' W 080°07'0 0.3
2015-May-06 16:33N 26°06' W 080°07'1111.0
2015-May-06 15:33N 25°55' W 080°03'1614.8
2015-May-06 14:28N 25°39' W 080°02'  
2015-May-01 00:26N 25°37' W 080°02'1012.0
2015-Apr-30 23:34N 25°47' W 080°02'1313.0
2015-Apr-30 22:34N 26°00' W 080°04'6 5.8
2015-Apr-30 21:33N 26°05' W 080°07'0 0.0
2015-Apr-30 20:31N 26°05' W 080°07'0 0.0
2015-Apr-30 19:31N 26°05' W 080°07'0 0.0
2015-Apr-30 18:31N 26°05' W 080°07'0 0.0
2015-Apr-30 17:31N 26°05' W 080°07'0 0.0
2015-Apr-30 16:31N 26°05' W 080°07'0 0.0
2015-Apr-30 15:31N 26°05' W 080°07'0 0.0
2015-Apr-30 14:31N 26°05' W 080°07'0 0.0
2015-Apr-30 13:19N 26°05' W 080°07'0 0.0
2015-Apr-30 12:22N 26°05' W 080°07'0 0.0
2015-Apr-30 11:25N 26°05' W 080°07'0 0.0
2015-Apr-30 10:25N 26°05' W 080°07'0 0.0
2015-Apr-30 09:25N 26°05' W 080°07'0 0.0
2015-Apr-30 08:25N 26°05' W 080°07'0 0.0
2015-Apr-30 07:25N 26°05' W 080°07'0 0.0
2015-Apr-30 06:28N 26°05' W 080°07'0 0.0
2015-Apr-30 05:28N 26°05' W 080°07'0 0.0
2015-Apr-30 04:28N 26°05' W 080°07'0 0.0
2015-Apr-30 03:28N 26°05' W 080°07'0 0.0
2015-Apr-30 02:28N 26°05' W 080°07'0 0.0
2015-Apr-30 01:28N 26°05' W 080°07'0 0.0
2015-Apr-30 00:30N 26°05' W 080°07'0 0.0
2015-Apr-29 23:30N 26°05' W 080°07'0 0.0
2015-Apr-29 22:27N 26°05' W 080°07'0 0.0
2015-Apr-29 21:30N 26°05' W 080°07'0 0.0
2015-Apr-29 20:27N 26°05' W 080°07'0 0.0
2015-Apr-29 19:33N 26°05' W 080°07'3 2.8
2015-Apr-29 18:33N 26°06' W 080°04'3 3.0
2015-Apr-29 17:34N 26°03' W 080°04'8 7.8
2015-Apr-29 16:33N 25°55' W 080°01'3 3.0
2015-Apr-29 15:33N 25°52' W 080°02'3 2.7
2015-Apr-29 14:33N 25°50' W 080°02'2 2.2
2015-Apr-29 13:33N 25°48' W 080°02'2 1.9
2015-Apr-29 12:33N 25°46' W 080°01'  
Track history (hours):
 
Tides and Currents Weather Stations Pressure Air Temp Water Temp Dewpoint Dewpoint Depression Visibility Wind Speed Wind Dir Waves Ship Positions

Caribe Navigator

Last reported at 2015-May-07 02:22 UTC. Time now 2015-May-07 02:35 UTC.
Position N 26°05' W 080°07'.

Length 100 m; draft 5.3 m.

Type: Cargo ship. MMSI: 305289000.

Date/timePositionNaut miles runAvg speedWind from/ knotsBaromVisibWave heightAir tempDewpointWater temp
2015-May-07 02:22N 26°05' W 080°07'0 0.0
2015-May-07 01:07N 26°05' W 080°07'0 0.0
2015-May-07 00:22N 26°05' W 080°07'0 0.0
2015-May-06 23:34N 26°05' W 080°07'0 0.0
2015-May-06 22:33N 26°05' W 080°07'0 0.0
2015-May-06 21:24N 26°05' W 080°07'0 0.0
2015-May-06 20:24N 26°05' W 080°07'0 0.0
2015-May-06 19:24N 26°05' W 080°07'0 0.0
2015-May-06 18:27N 26°05' W 080°07'0 0.0
2015-May-06 17:27N 26°05' W 080°07'0 0.3
2015-May-06 16:33N 26°06' W 080°07'1111.0
2015-May-06 15:33N 25°55' W 080°03'1614.8
2015-May-06 14:28N 25°39' W 080°02'  
2015-May-01 00:26N 25°37' W 080°02'1012.0
2015-Apr-30 23:34N 25°47' W 080°02'1313.0
2015-Apr-30 22:34N 26°00' W 080°04'6 5.8
2015-Apr-30 21:33N 26°05' W 080°07'0 0.0
2015-Apr-30 20:31N 26°05' W 080°07'0 0.0
2015-Apr-30 19:31N 26°05' W 080°07'0 0.0
2015-Apr-30 18:31N 26°05' W 080°07'0 0.0
2015-Apr-30 17:31N 26°05' W 080°07'0 0.0
2015-Apr-30 16:31N 26°05' W 080°07'0 0.0
2015-Apr-30 15:31N 26°05' W 080°07'0 0.0
2015-Apr-30 14:31N 26°05' W 080°07'0 0.0
2015-Apr-30 13:19N 26°05' W 080°07'0 0.0
2015-Apr-30 12:22N 26°05' W 080°07'0 0.0
2015-Apr-30 11:25N 26°05' W 080°07'0 0.0
2015-Apr-30 10:25N 26°05' W 080°07'0 0.0
2015-Apr-30 09:25N 26°05' W 080°07'0 0.0
2015-Apr-30 08:25N 26°05' W 080°07'0 0.0
2015-Apr-30 07:25N 26°05' W 080°07'0 0.0
2015-Apr-30 06:28N 26°05' W 080°07'0 0.0
2015-Apr-30 05:28N 26°05' W 080°07'0 0.0
2015-Apr-30 04:28N 26°05' W 080°07'0 0.0
2015-Apr-30 03:28N 26°05' W 080°07'0 0.0
2015-Apr-30 02:28N 26°05' W 080°07'0 0.0
2015-Apr-30 01:28N 26°05' W 080°07'0 0.0
2015-Apr-30 00:30N 26°05' W 080°07'0 0.0
2015-Apr-29 23:30N 26°05' W 080°07'0 0.0
2015-Apr-29 22:27N 26°05' W 080°07'0 0.0
2015-Apr-29 21:30N 26°05' W 080°07'0 0.0
2015-Apr-29 20:27N 26°05' W 080°07'0 0.0
2015-Apr-29 19:33N 26°05' W 080°07'3 2.8
2015-Apr-29 18:33N 26°06' W 080°04'3 3.0
2015-Apr-29 17:34N 26°03' W 080°04'8 7.8
2015-Apr-29 16:33N 25°55' W 080°01'3 3.0
2015-Apr-29 15:33N 25°52' W 080°02'3 2.7
2015-Apr-29 14:33N 25°50' W 080°02'2 2.2
2015-Apr-29 13:33N 25°48' W 080°02'2 1.9
2015-Apr-29 12:33N 25°46' W 080°01'  

Dump ship's entire track history